Austin, TX (78772)

7:26 PM CDT on September 30, 2014 (GMT -0500)
Travis Heights - Chateaux Sexton | Change Station
CLOSE
Current Station
Personal Weather Station
Location: Austin, TX
Elevation: 568 ft
Nearby Weather Stations

Elev 568 ft 30.24 °N, 97.75 °W | Updated 32 seconds ago

Partly Cloudy
Partly Cloudy
85.4 °F
Feels Like 89 °F
N
0.0
Wind Variable Wind from ENE
Gusts 2.0 mph

Today
High -- | Low -- °F
--% Chance of Precip.
Yesterday
High -- | Low -- °F
Precip. -- in
7:23 AM 7:17 PM
Waxing Crescent, 41% visible
Pressure 29.74 in
Visibility 10.0 miles
Clouds Scattered Clouds 5500 ft
Heat Index 89 °F
Dew Point 68 °F
Humidity 57%
Rainfall 0.00 in
Snow Depth Not available.
UV 0 out of 12
Pollen 8.00 out of 12
Ozone Good
PM2.5 Good
Flu Activity Not available.
METAR KAUS 302353Z 16007KT 10SM SCT055 30/19 A2976 RMK AO2 SLP070 T03000194 10328 20300 55004

More Conditions Fewer Conditions

Pressure 29.74 in
Visibility 10.0 miles
Clouds Scattered Clouds 5500 ft
Heat Index 89 °F
Dew Point 68 °F
Humidity 57%
Rainfall 0.00 in
Snow Depth Not available.
UV 0 out of 12
Pollen 8.00 out of 12
Ozone Good
PM2.5 Good
Flu Activity Not available.
METAR KAUS 302353Z 16007KT 10SM SCT055 30/19 A2976 RMK AO2 SLP070 T03000194 10328 20300 55004

More Conditions Fewer Conditions

10-Day Weather Forecast

Almanac

Astronomy

Sep. 30, 2014 Rise Set
Actual Time 7:23 AM CDT 7:17 PM CDT
Civil Twilight 6:59 AM CDT 7:41 PM CDT
Nautical Twilight 6:32 AM CDT 8:09 PM CDT
Astronomical Twilight 6:04 AM CDT 8:37 PM CDT
Moon 1:14 PM CDT (9/30) No Moon Set
Length of Visible Light 12h 41m
Length of Day
11h 53m
Tomorrow will be 1m 47s shorter.
Waxing Crescent, 41% of the Moon is Illuminated
Today
Waxing Crescent
Oct 1
First Quarter
Oct 8
Full
Oct 15
Last Quarter
Oct 23
New

Today's Extremes

State Highs State Lows

Community

WunderPhotos

Upload Photos

1,757,792 photos uploaded!

Nearby

Air Quality

  Air Quality AQ Index Pollutant
Yesterday Good
OZONE
Yesterday Good
PM2.5
Current Good
OZONE
Current Good
PM2.5
Tuesday Moderate
OZONE
Tuesday Good
PM10
Wednesday Good
OZONE
Wednesday Good
PM10
Thursday Good
OZONE
Thursday Good
PM10
Friday Good
OZONE
Friday Good
PM10

Snow Depth

Station Depth Elevation
No new snow has been reported.

Earthquake Activity

City Distance Mag. Time & Date
No recent earthquake activity has been reported nearby.
Minimum magnitude displayed is 2.5.

Coastal Water Temperatures

Place Temperature
No Stations Reporting

Nearby Weather Stations